Accueil
METAR-TAF:

METAR-TAF

Aéroports :

Aéroport d'Abadan

Abadan, Iran

latitude: 30-22N, longitude: 048-15E, altitude: 3 m

Observation

Le bulletin a été fait il y a 19 minutes, à 10:00 UTC
Vent 6 kt de sud
Température 47°C
Humidité 8%
Pression 994 hPa
Visibilité 10 km ou plus
pas de nuages en-dessous de 1500 mètres et pas de cumulonimbus.

METAR: OIAA 071000Z 17006KT CAVOK 47/05 Q0994

Heure: 14:49 (10:19 UTC)

Prévision

Le bulletin a été fait il y a 4 heures et 49 minutes, à 05:30 UTC
Prévision valable du 07 à 06 UTC au 08 à 12 UTC
Vent 8 kt de sud
Visibilité: 7000 m
Temporairement
du 07 à 09 UTC au 07 à 15 UTC
Vent 18 kt de sud
Visibilité: 4000 m
poussière généralisée

TAF: OIAA 070530Z 0706/0812 18008KT 7000 NSC TEMPO 0709/0715 18018KT 4000 DU

Observations et prévisions météorologiques de plus de 4000 aéroports (messages METAR et TAF).

Les stations disponibles sont représentées par des disques jaunes et rouges sur la carte.

Passer la souris dessus pour voir le nom de la station.

Cliquer dessus pour voir les observations et prévisions météorologiques.

Pour changer de carte: cliquez sur les boutons verts avec une croix noire pour zoomer, sur le bouton vert avec un tiret pour effectuer un zoom arrière, ou sur les flèches vertes pour les cartes adjacentes.


METAR-TAF: